In Rescue
 
Open Full Screen Window  High Contrast Mode
Wind Gusting 22 knots
14
April 20, 2024 8:35 AM CDT
Weather Information
Wind Direction
  310 °
Wind Speed
  14 kt (16 mph)
Wind Gust
  22 kt (25 mph)
Altimeter
30.30 in
Visibility
10 SM
Temperature
00° C
32° F
Dewpoint
-05° C
23° F
Humidity
69%
Sky Condition
Overcast @ 2,800 ft
MVFR

METAR KACQ 201335Z AUTO 31014G22KT 10SM OVC028 00/M05 A3030 RMK AO2

FAA Disclaimer: The data displayed is for advisory purposes only and is not to be used for flight planning or operations.